createdAt,value
2018-03-09T00:00:21.693Z,-46
2018-03-09T00:02:49.633Z,-46
2018-03-09T00:05:17.565Z,-46
2018-03-09T00:07:45.472Z,-46
2018-03-09T00:10:13.443Z,-46
2018-03-09T00:12:41.350Z,-46
2018-03-09T00:15:09.249Z,-46
2018-03-09T00:17:37.156Z,-46
2018-03-09T00:20:05.184Z,-46
2018-03-09T00:22:33.096Z,-46
2018-03-09T00:25:01.017Z,-46
2018-03-09T00:27:28.924Z,-46
2018-03-09T00:29:56.838Z,-46
2018-03-09T00:32:24.738Z,-46
2018-03-09T00:34:52.651Z,-46
2018-03-09T00:37:21.271Z,-46
2018-03-09T00:39:49.182Z,-46
2018-03-09T00:42:17.072Z,-46
2018-03-09T00:44:45.014Z,-46
2018-03-09T00:47:12.912Z,-46
2018-03-09T00:49:40.833Z,-46
2018-03-09T00:52:08.740Z,-46
2018-03-09T00:54:36.656Z,-46
2018-03-09T00:57:04.569Z,-46
2018-03-09T00:59:32.468Z,-46
2018-03-09T01:02:00.379Z,-46
2018-03-09T01:04:28.286Z,-46
2018-03-09T01:06:56.200Z,-46
2018-03-09T01:09:24.110Z,-46
2018-03-09T01:11:52.017Z,-46
2018-03-09T01:14:19.988Z,-46
2018-03-09T01:16:47.915Z,-45
2018-03-09T01:19:15.818Z,-46
2018-03-09T01:21:43.779Z,-46
2018-03-09T01:24:11.874Z,-46
2018-03-09T01:26:39.789Z,-46
2018-03-09T01:29:07.713Z,-47
2018-03-09T01:31:35.608Z,-47
2018-03-09T01:34:03.536Z,-46
2018-03-09T01:36:31.437Z,-46
2018-03-09T01:38:59.348Z,-46
2018-03-09T01:41:27.272Z,-46
2018-03-09T01:43:55.177Z,-46
2018-03-09T01:46:23.125Z,-46
2018-03-09T01:48:51.071Z,-46
2018-03-09T01:51:18.981Z,-46
2018-03-09T01:53:46.915Z,-45
2018-03-09T01:56:14.976Z,-46
2018-03-09T01:58:42.884Z,-46
2018-03-09T02:01:10.792Z,-46
2018-03-09T02:03:38.718Z,-46
2018-03-09T02:06:06.629Z,-46
2018-03-09T02:08:34.542Z,-46
2018-03-09T02:11:02.440Z,-45
2018-03-09T02:13:30.361Z,-46
2018-03-09T02:15:58.269Z,-46
2018-03-09T02:18:26.164Z,-45
2018-03-09T02:20:54.080Z,-45
2018-03-09T02:23:21.992Z,-45
2018-03-09T02:25:49.893Z,-45
2018-03-09T02:28:17.808Z,-46
2018-03-09T02:30:45.709Z,-45
2018-03-09T02:33:13.625Z,-45
2018-03-09T02:35:41.524Z,-45
2018-03-09T02:38:09.441Z,-45
2018-03-09T02:40:37.337Z,-46
2018-03-09T02:43:05.233Z,-45
2018-03-09T02:45:33.144Z,-46
2018-03-09T02:48:01.056Z,-46
2018-03-09T02:50:28.961Z,-46
2018-03-09T02:52:56.861Z,-46
2018-03-09T02:55:24.997Z,-46
2018-03-09T02:57:52.902Z,-46
2018-03-09T03:00:20.802Z,-46
2018-03-09T03:02:48.701Z,-46
2018-03-09T03:05:16.604Z,-46
2018-03-09T03:07:44.504Z,-46
2018-03-09T03:10:12.404Z,-46
2018-03-09T03:12:40.308Z,-46
2018-03-09T03:15:08.220Z,-46
2018-03-09T03:17:36.133Z,-46
2018-03-09T03:20:04.385Z,-45
2018-03-09T03:22:32.324Z,-46
2018-03-09T03:25:00.200Z,-46
2018-03-09T03:27:28.131Z,-46
2018-03-09T03:29:56.044Z,-46
2018-03-09T03:32:23.957Z,-46
2018-03-09T03:34:51.875Z,-46
2018-03-09T03:37:20.156Z,-46
2018-03-09T03:39:48.060Z,-46
2018-03-09T03:44:49.492Z,-46
2018-03-09T03:47:17.425Z,-46
2018-03-09T03:49:45.337Z,-46
2018-03-09T03:52:13.237Z,-46
2018-03-09T03:54:41.145Z,-46
2018-03-09T03:59:30.788Z,-45
2018-03-09T04:01:58.719Z,-45
2018-03-09T04:04:26.635Z,-46
2018-03-09T04:06:54.548Z,-45
2018-03-09T04:09:22.474Z,-46
2018-03-09T04:11:50.396Z,-46
2018-03-09T04:14:18.313Z,-45
2018-03-09T04:16:46.220Z,-47
2018-03-09T04:19:14.121Z,-45
2018-03-09T04:21:42.028Z,-47
2018-03-09T04:24:09.929Z,-44
2018-03-09T04:26:38.012Z,-44
2018-03-09T04:29:05.921Z,-45
2018-03-09T04:31:33.838Z,-45
2018-03-09T04:34:01.753Z,-45
2018-03-09T04:36:29.700Z,-45
2018-03-09T04:38:57.612Z,-45
2018-03-09T04:41:25.520Z,-47
2018-03-09T04:43:53.448Z,-47
2018-03-09T04:46:21.363Z,-47
2018-03-09T04:48:49.268Z,-47
2018-03-09T04:51:17.179Z,-47
2018-03-09T04:53:45.088Z,-47
2018-03-09T04:56:13.021Z,-47
2018-03-09T04:58:41.292Z,-47
2018-03-09T05:01:16.183Z,-47
2018-03-09T05:03:44.120Z,-47
2018-03-09T05:06:12.024Z,-47
2018-03-09T05:08:39.945Z,-47
2018-03-09T05:11:07.841Z,-48
2018-03-09T05:13:35.748Z,-47
2018-03-09T05:16:03.664Z,-47
2018-03-09T05:18:31.599Z,-47
2018-03-09T05:20:59.512Z,-47
2018-03-09T05:23:27.463Z,-47
2018-03-09T05:25:55.331Z,-47
2018-03-09T05:28:23.261Z,-47
2018-03-09T05:30:51.210Z,-47
2018-03-09T05:33:19.088Z,-47
2018-03-09T05:35:47.001Z,-47
2018-03-09T05:38:14.948Z,-47
2018-03-09T05:40:42.860Z,-44
2018-03-09T05:43:10.792Z,-47
2018-03-09T05:45:38.714Z,-47
2018-03-09T05:48:06.608Z,-44
2018-03-09T05:50:34.515Z,-45
2018-03-09T05:53:02.792Z,-45
2018-03-09T05:55:30.735Z,-44
2018-03-09T05:57:58.661Z,-45
2018-03-09T06:00:26.573Z,-45
2018-03-09T06:02:54.480Z,-45
2018-03-09T06:05:22.397Z,-45
2018-03-09T06:07:50.301Z,-45
2018-03-09T06:10:18.205Z,-45
2018-03-09T06:12:46.110Z,-45
2018-03-09T06:15:14.020Z,-45
2018-03-09T06:17:41.923Z,-46
2018-03-09T06:20:09.828Z,-45
2018-03-09T06:22:37.728Z,-45
2018-03-09T06:25:05.658Z,-45
2018-03-09T06:27:33.574Z,-45
2018-03-09T06:30:01.472Z,-45
2018-03-09T06:32:29.376Z,-45
2018-03-09T06:34:57.586Z,-45
2018-03-09T06:37:25.504Z,-45
2018-03-09T06:39:53.440Z,-45
2018-03-09T06:42:21.352Z,-45
2018-03-09T06:44:49.244Z,-46
2018-03-09T06:47:17.164Z,-45
2018-03-09T06:49:45.060Z,-45
2018-03-09T06:52:12.978Z,-45
2018-03-09T06:54:41.176Z,-45
2018-03-09T06:57:09.080Z,-45
2018-03-09T06:59:36.984Z,-45
2018-03-09T07:02:04.935Z,-45
2018-03-09T07:04:32.863Z,-45
2018-03-09T07:07:00.768Z,-45
2018-03-09T07:09:28.677Z,-45
2018-03-09T07:11:56.572Z,-45
2018-03-09T07:14:24.485Z,-45
2018-03-09T07:16:52.380Z,-46
2018-03-09T07:19:20.279Z,-46
2018-03-09T07:21:48.184Z,-45
2018-03-09T07:24:16.393Z,-46
2018-03-09T07:26:44.297Z,-46
2018-03-09T07:29:12.233Z,-46
2018-03-09T07:31:40.146Z,-46
2018-03-09T07:34:08.054Z,-46
2018-03-09T07:36:36.005Z,-46
2018-03-09T07:39:03.964Z,-46
2018-03-09T07:41:32.329Z,-46
2018-03-09T07:44:00.298Z,-46
2018-03-09T07:46:28.249Z,-46
2018-03-09T07:48:56.194Z,-46
2018-03-09T07:51:24.145Z,-46
2018-03-09T07:53:52.100Z,-52
2018-03-09T07:56:20.073Z,-46
2018-03-09T07:58:48.103Z,-46
2018-03-09T08:01:16.079Z,-46
2018-03-09T08:03:44.663Z,-46
2018-03-09T08:06:12.697Z,-46
2018-03-09T08:08:40.693Z,-46
2018-03-09T08:11:08.773Z,-46
2018-03-09T08:13:36.772Z,-46
2018-03-09T08:16:04.777Z,-46
2018-03-09T08:18:32.789Z,-46
2018-03-09T08:21:00.776Z,-46
2018-03-09T08:23:28.768Z,-46
2018-03-09T08:25:56.784Z,-46
2018-03-09T08:28:24.800Z,-46
2018-03-09T08:30:52.772Z,-46
2018-03-09T08:33:20.745Z,-46
2018-03-09T08:35:48.712Z,-47
2018-03-09T08:38:16.688Z,-46
2018-03-09T08:40:44.685Z,-46
2018-03-09T08:43:12.756Z,-47
2018-03-09T08:45:40.767Z,-47
2018-03-09T08:48:08.752Z,-47
2018-03-09T08:50:36.733Z,-47
2018-03-09T08:53:04.754Z,-46
2018-03-09T08:55:32.752Z,-47
2018-03-09T08:58:00.982Z,-47
2018-03-09T09:00:28.979Z,-47
2018-03-09T09:02:56.963Z,-47
2018-03-09T09:05:24.941Z,-46
2018-03-09T09:07:52.916Z,-46
2018-03-09T09:10:20.901Z,-47
2018-03-09T09:12:48.876Z,-46
2018-03-09T09:15:16.879Z,-47
2018-03-09T09:17:44.880Z,-47
2018-03-09T09:20:12.863Z,-46
2018-03-09T09:22:40.848Z,-46
2018-03-09T09:25:08.825Z,-47
2018-03-09T09:27:37.200Z,-47
2018-03-09T09:30:05.196Z,-46
2018-03-09T09:32:33.200Z,-46
2018-03-09T09:35:01.185Z,-46
2018-03-09T09:37:29.164Z,-46
2018-03-09T09:39:57.156Z,-46
2018-03-09T09:42:25.171Z,-47
2018-03-09T09:44:53.165Z,-46
2018-03-09T09:47:21.165Z,-47
2018-03-09T09:49:49.168Z,-47
2018-03-09T09:52:17.800Z,-47
2018-03-09T09:54:45.786Z,-47
2018-03-09T09:57:13.790Z,-48
2018-03-09T09:59:41.788Z,-47
2018-03-09T10:02:09.784Z,-47
2018-03-09T10:04:37.780Z,-47
2018-03-09T10:07:05.765Z,-47
2018-03-09T10:09:33.740Z,-47
2018-03-09T10:12:01.724Z,-47
2018-03-09T10:14:29.753Z,-47
2018-03-09T10:16:57.729Z,-47
2018-03-09T10:19:25.725Z,-47
2018-03-09T10:21:53.727Z,-47
2018-03-09T10:24:21.704Z,-47
2018-03-09T10:26:49.684Z,-47
2018-03-09T10:29:17.673Z,-47
2018-03-09T10:31:45.648Z,-47
2018-03-09T10:34:13.612Z,-47
2018-03-09T10:36:41.580Z,-47
2018-03-09T10:39:09.737Z,-47
2018-03-09T10:41:37.725Z,-47
2018-03-09T10:44:05.702Z,-47
2018-03-09T10:46:33.696Z,-47
2018-03-09T10:49:01.668Z,-47
2018-03-09T10:51:29.667Z,-47
2018-03-09T10:53:57.652Z,-48
2018-03-09T10:56:25.996Z,-48
2018-03-09T10:58:53.968Z,-48
2018-03-09T11:01:21.953Z,-47
2018-03-09T11:03:49.944Z,-47
2018-03-09T11:06:17.932Z,-47
2018-03-09T11:08:45.912Z,-47
2018-03-09T11:11:13.913Z,-47
2018-03-09T11:13:41.889Z,-47
2018-03-09T11:16:09.876Z,-47
2018-03-09T11:18:37.852Z,-47
2018-03-09T11:21:05.853Z,-47
2018-03-09T11:23:33.828Z,-48
2018-03-09T11:26:02.175Z,-46
2018-03-09T11:28:30.164Z,-46
2018-03-09T11:30:58.144Z,-46
2018-03-09T11:33:26.115Z,-46
2018-03-09T11:35:54.095Z,-46
2018-03-09T11:38:22.084Z,-46
2018-03-09T11:40:50.068Z,-47
2018-03-09T11:43:18.062Z,-47
2018-03-09T11:45:46.064Z,-47
2018-03-09T11:48:14.065Z,-47
2018-03-09T11:50:42.518Z,-47
2018-03-09T11:53:10.508Z,-47
2018-03-09T11:55:38.490Z,-47
2018-03-09T11:58:06.467Z,-47
2018-03-09T12:00:34.440Z,-47
2018-03-09T12:03:02.421Z,-47
2018-03-09T12:05:30.408Z,-47
2018-03-09T12:07:58.812Z,-47
2018-03-09T12:10:26.783Z,-47
2018-03-09T12:12:54.756Z,-47
2018-03-09T12:15:22.723Z,-47
2018-03-09T12:17:50.696Z,-47
2018-03-09T12:20:18.669Z,-47
2018-03-09T12:22:46.664Z,-47
2018-03-09T12:25:14.664Z,-48
2018-03-09T12:27:42.656Z,-48
2018-03-09T12:30:10.651Z,-48
2018-03-09T12:32:38.649Z,-48
2018-03-09T12:35:06.642Z,-48
2018-03-09T12:37:34.624Z,-48
2018-03-09T12:40:03.219Z,-48
2018-03-09T12:42:31.212Z,-48
2018-03-09T12:44:59.191Z,-48
2018-03-09T12:47:27.181Z,-48
2018-03-09T12:49:55.176Z,-48
2018-03-09T12:52:23.161Z,-48
2018-03-09T12:54:51.142Z,-48
2018-03-09T12:57:19.508Z,-48
2018-03-09T12:59:47.500Z,-48
2018-03-09T13:02:15.477Z,-48
2018-03-09T13:04:43.452Z,-48
2018-03-09T13:07:11.416Z,-48
2018-03-09T13:09:42.328Z,-48
2018-03-09T13:12:10.384Z,-48
2018-03-09T13:14:44.391Z,-48
2018-03-09T13:17:12.421Z,-48
2018-03-09T13:19:40.356Z,-48
2018-03-09T13:22:08.329Z,-48
2018-03-09T13:24:36.233Z,-49
2018-03-09T13:27:04.148Z,-48
2018-03-09T13:29:32.338Z,-48
2018-03-09T13:32:00.245Z,-48
2018-03-09T13:34:28.153Z,-49
2018-03-09T13:36:56.060Z,-48
2018-03-09T13:39:23.961Z,-48
2018-03-09T13:41:51.859Z,-48
2018-03-09T13:44:19.736Z,-48
2018-03-09T13:46:47.671Z,-48
2018-03-09T13:49:15.576Z,-48
2018-03-09T13:51:43.493Z,-48
2018-03-09T13:54:11.402Z,-48
2018-03-09T13:56:39.300Z,-48
2018-03-09T13:59:07.205Z,-48
2018-03-09T14:01:35.735Z,-48
2018-03-09T14:04:03.645Z,-48
2018-03-09T14:06:31.559Z,-48
2018-03-09T14:09:06.439Z,-48
2018-03-09T14:11:34.368Z,-48
2018-03-09T14:14:02.283Z,-48
2018-03-09T14:16:30.189Z,-48
2018-03-09T14:18:58.093Z,-49
2018-03-09T14:21:25.996Z,-48
2018-03-09T14:23:53.892Z,-48
2018-03-09T14:26:21.794Z,-48
2018-03-09T14:28:49.704Z,-48
2018-03-09T14:31:17.601Z,-48
2018-03-09T14:33:45.505Z,-48
2018-03-09T14:36:13.426Z,-48
2018-03-09T14:38:41.330Z,-48
2018-03-09T14:41:09.238Z,-48
2018-03-09T14:43:37.141Z,-48
2018-03-09T14:46:05.048Z,-48
2018-03-09T14:48:32.948Z,-48
2018-03-09T14:51:00.844Z,-48
2018-03-09T14:53:28.768Z,-48
2018-03-09T14:55:56.684Z,-48
2018-03-09T14:58:24.585Z,-48
2018-03-09T15:00:52.511Z,-48
2018-03-09T15:03:20.416Z,-48
2018-03-09T15:05:48.309Z,-48
2018-03-09T15:08:16.811Z,-48
2018-03-09T15:10:44.716Z,-48
2018-03-09T15:13:12.609Z,-48
2018-03-09T15:15:40.531Z,-48
2018-03-09T15:18:08.424Z,-48
2018-03-09T15:20:36.338Z,-48
2018-03-09T15:23:04.281Z,-48
2018-03-09T15:25:32.184Z,-48
2018-03-09T15:28:00.697Z,-50
2018-03-09T15:30:30.398Z,-47
2018-03-09T15:32:58.308Z,-48
2018-03-09T15:35:26.215Z,-48
2018-03-09T15:38:00.288Z,-48
2018-03-09T15:40:28.197Z,-48
2018-03-09T15:42:56.100Z,-48
2018-03-09T15:45:23.995Z,-47
2018-03-09T15:47:51.902Z,-47
2018-03-09T15:50:19.806Z,-47
2018-03-09T15:52:48.276Z,-47
2018-03-09T15:55:17.289Z,-47
2018-03-09T15:57:45.204Z,-47
2018-03-09T16:00:13.110Z,-48
2018-03-09T16:02:41.017Z,-47
2018-03-09T16:05:08.934Z,-47
2018-03-09T16:07:36.846Z,-47
2018-03-09T16:10:04.757Z,-47
2018-03-09T16:12:32.660Z,-48
2018-03-09T16:15:00.559Z,-47
2018-03-09T16:17:28.486Z,-48
2018-03-09T16:19:56.386Z,-47
2018-03-09T16:22:24.277Z,-48
2018-03-09T16:24:52.187Z,-47
2018-03-09T16:27:20.129Z,-47
2018-03-09T16:29:48.310Z,-48
2018-03-09T16:32:16.256Z,-47
2018-03-09T16:34:44.175Z,-48
2018-03-09T16:37:12.096Z,-47
2018-03-09T16:39:40.002Z,-48
2018-03-09T16:42:07.897Z,-47
2018-03-09T16:44:35.812Z,-47
2018-03-09T16:47:03.716Z,-47
2018-03-09T16:49:31.615Z,-47
2018-03-09T16:51:59.956Z,-47
2018-03-09T16:54:27.861Z,-47
2018-03-09T16:56:55.765Z,-47
2018-03-09T16:59:23.689Z,-47
2018-03-09T17:01:51.601Z,-47
2018-03-09T17:04:19.487Z,-47
2018-03-09T17:06:47.389Z,-47
2018-03-09T17:09:15.292Z,-49
2018-03-09T17:11:43.213Z,-47
2018-03-09T17:14:11.104Z,-47
2018-03-09T17:16:39.076Z,-47
2018-03-09T17:19:06.982Z,-47
2018-03-09T17:21:34.880Z,-47
2018-03-09T17:24:02.861Z,-47
2018-03-09T17:26:30.740Z,-47
2018-03-09T17:28:58.657Z,-47
2018-03-09T17:31:26.573Z,-47
2018-03-09T17:33:54.484Z,-47
2018-03-09T17:36:22.382Z,-47
2018-03-09T17:38:50.272Z,-47
2018-03-09T17:41:18.185Z,-47
2018-03-09T17:43:46.096Z,-47
2018-03-09T17:46:14.025Z,-47
2018-03-09T17:48:41.932Z,-47
2018-03-09T17:51:09.832Z,-48
2018-03-09T17:53:37.736Z,-47
2018-03-09T17:56:06.033Z,-47
2018-03-09T17:58:33.938Z,-47
2018-03-09T18:01:01.870Z,-47
2018-03-09T18:03:29.768Z,-47
2018-03-09T18:05:57.676Z,-47
2018-03-09T18:08:25.607Z,-47
2018-03-09T18:10:53.544Z,-47
2018-03-09T18:13:21.481Z,-47
2018-03-09T18:15:49.392Z,-47
2018-03-09T18:18:17.292Z,-47
2018-03-09T18:20:45.209Z,-47
2018-03-09T18:23:13.116Z,-47
2018-03-09T18:25:41.476Z,-47
2018-03-09T18:28:16.204Z,-47
2018-03-09T18:30:44.121Z,-47
2018-03-09T18:33:12.021Z,-47
2018-03-09T18:35:39.921Z,-47
2018-03-09T18:38:07.963Z,-47
2018-03-09T18:40:35.896Z,-47
2018-03-09T18:43:04.096Z,-46
2018-03-09T18:45:32.008Z,-47
2018-03-09T18:47:59.917Z,-47
2018-03-09T18:50:27.828Z,-47
2018-03-09T18:52:55.728Z,-47
2018-03-09T18:55:23.640Z,-47
2018-03-09T18:57:51.553Z,-47
2018-03-09T19:00:19.881Z,-47
2018-03-09T19:02:47.804Z,-47
2018-03-09T19:05:15.730Z,-47
2018-03-09T19:07:43.648Z,-47
2018-03-09T19:10:11.566Z,-47
2018-03-09T19:12:39.474Z,-47
2018-03-09T19:15:07.387Z,-47
2018-03-09T19:17:35.305Z,-47
2018-03-09T19:20:03.220Z,-47
2018-03-09T19:22:31.133Z,-47
2018-03-09T19:24:59.094Z,-47
2018-03-09T19:27:27.153Z,-48
2018-03-09T19:29:55.095Z,-47
2018-03-09T19:32:23.010Z,-46
2018-03-09T19:34:50.948Z,-45
2018-03-09T19:37:18.852Z,-45
2018-03-09T19:39:46.809Z,-45
2018-03-09T19:42:14.771Z,-45
2018-03-09T19:44:42.639Z,-45
2018-03-09T19:47:10.536Z,-45
2018-03-09T19:49:38.445Z,-46
2018-03-09T19:52:06.465Z,-46
2018-03-09T19:54:34.388Z,-46
2018-03-09T19:57:02.300Z,-46
2018-03-09T19:59:30.192Z,-46
2018-03-09T20:01:58.109Z,-46
2018-03-09T20:04:26.009Z,-46
2018-03-09T20:06:53.902Z,-47
2018-03-09T20:09:22.300Z,-47
2018-03-09T20:11:50.212Z,-46
2018-03-09T20:14:18.109Z,-47
2018-03-09T20:16:46.005Z,-46
2018-03-09T20:19:13.934Z,-46
2018-03-09T20:21:42.363Z,-46
2018-03-09T20:24:10.299Z,-46
2018-03-09T20:26:38.204Z,-47
2018-03-09T20:29:06.114Z,-47
2018-03-09T20:31:34.033Z,-47
2018-03-09T20:34:01.913Z,-47
2018-03-09T20:36:29.825Z,-46
2018-03-09T20:38:57.735Z,-46
2018-03-09T20:41:25.646Z,-47
2018-03-09T20:43:53.559Z,-47
2018-03-09T20:46:21.460Z,-47
2018-03-09T20:48:49.389Z,-46
2018-03-09T20:51:17.303Z,-46
2018-03-09T20:53:45.200Z,-47
2018-03-09T20:56:13.723Z,-47
2018-03-09T20:58:41.630Z,-46
2018-03-09T21:01:09.543Z,-46
2018-03-09T21:03:37.520Z,-46
2018-03-09T21:06:05.417Z,-46
2018-03-09T21:08:33.323Z,-46
2018-03-09T21:11:01.231Z,-46
2018-03-09T21:13:29.144Z,-46
2018-03-09T21:15:57.110Z,-47
2018-03-09T21:18:24.997Z,-47
2018-03-09T21:20:52.912Z,-46
2018-03-09T21:23:20.826Z,-46
2018-03-09T21:25:48.748Z,-46
2018-03-09T21:28:16.678Z,-46
2018-03-09T21:30:44.611Z,-46
2018-03-09T21:33:12.509Z,-46
2018-03-09T21:35:40.420Z,-47
2018-03-09T21:38:08.337Z,-46
2018-03-09T21:40:36.252Z,-46
2018-03-09T21:43:04.148Z,-46
2018-03-09T21:45:32.096Z,-46
2018-03-09T21:48:00.343Z,-46
2018-03-09T21:50:28.271Z,-46
2018-03-09T21:52:56.184Z,-46
2018-03-09T21:55:24.100Z,-46
2018-03-09T21:57:52.005Z,-46
2018-03-09T22:00:19.920Z,-47
2018-03-09T22:02:47.830Z,-46
2018-03-09T22:05:15.729Z,-46
2018-03-09T22:07:43.633Z,-46
2018-03-09T22:10:11.528Z,-46
2018-03-09T22:12:39.438Z,-46
2018-03-09T22:15:07.337Z,-46
2018-03-09T22:17:35.228Z,-46
2018-03-09T22:20:03.133Z,-46
2018-03-09T22:22:31.057Z,-46
2018-03-09T22:24:58.956Z,-46
2018-03-09T22:27:26.875Z,-46
2018-03-09T22:29:54.804Z,-46
2018-03-09T22:32:22.733Z,-46
2018-03-09T22:34:50.624Z,-46
2018-03-09T22:37:18.536Z,-46
2018-03-09T22:39:46.444Z,-46
2018-03-09T22:42:14.339Z,-46
2018-03-09T22:44:42.253Z,-47
2018-03-09T22:47:10.164Z,-46
2018-03-09T22:49:38.073Z,-46
2018-03-09T22:52:06.412Z,-46
2018-03-09T22:54:34.321Z,-46
2018-03-09T22:57:02.236Z,-46
2018-03-09T22:59:30.159Z,-46
2018-03-09T23:01:58.092Z,-46
2018-03-09T23:04:25.996Z,-46
2018-03-09T23:06:53.905Z,-46
2018-03-09T23:09:21.824Z,-47
2018-03-09T23:11:49.748Z,-46
2018-03-09T23:14:17.644Z,-46
2018-03-09T23:16:45.553Z,-46
2018-03-09T23:19:13.546Z,-46
2018-03-09T23:21:41.453Z,-46
2018-03-09T23:24:09.366Z,-46
2018-03-09T23:26:37.269Z,-46
2018-03-09T23:29:05.176Z,-46
2018-03-09T23:31:33.071Z,-47
2018-03-09T23:34:01.480Z,-47
2018-03-09T23:36:29.393Z,-46
2018-03-09T23:38:57.304Z,-46
2018-03-09T23:41:25.207Z,-47
2018-03-09T23:43:53.115Z,-46
2018-03-09T23:46:21.033Z,-46
2018-03-09T23:48:48.932Z,-46
2018-03-09T23:51:17.300Z,-46
2018-03-09T23:53:45.196Z,-46
2018-03-09T23:56:13.111Z,-46
2018-03-09T23:58:41.017Z,-46
